Time;durP1;ratioP1;P1;durP2;ratioP2;P2;SDS_P1;SDS_P2;PMS_P1;PMS_P2;Temp;Humidity;BMP_temperature;BMP_pressure;BME280_temperature;BME280_humidity;BME280_pressure;Samples;Min_cycle;Max_cycle;Signal;HPM_P1;HPM_P2
2023/10/18 00:02:52;;;;;;;4.90;3.05;;;;;;;;;;6312131;28;20070;-64
2023/10/18 00:05:55;;;;;;;4.00;2.72;;;;;;;;;;6311505;28;20059;-65
2023/10/18 00:09:38;;;;;;;6.40;2.88;;;;;;;;;;6312272;28;20135;-65
2023/10/18 00:12:22;;;;;;;4.85;3.03;;;;;;;;;;6311617;28;20048;-65
2023/10/18 00:15:24;;;;;;;5.07;2.80;;;;;;;;;;6312366;28;20063;-64
2023/10/18 00:18:26;;;;;;;4.90;3.40;;;;;;;;;;6311841;28;20032;-65
2023/10/18 00:21:32;;;;;;;5.50;3.25;;;;;;;;;;6311621;28;20055;-65
2023/10/18 00:24:34;;;;;;;6.03;3.42;;;;;;;;;;6311728;28;20078;-65
2023/10/18 00:27:38;;;;;;;5.15;2.78;;;;;;;;;;6312076;28;20036;-65
2023/10/18 00:30:40;;;;;;;5.43;2.88;;;;;;;;;;6311756;28;20193;-64
2023/10/18 00:33:43;;;;;;;7.68;3.67;;;;;;;;;;6309845;28;20047;-65
2023/10/18 00:36:45;;;;;;;8.55;3.90;;;;;;;;;;6308981;28;20048;-64
2023/10/18 00:39:47;;;;;;;7.07;3.35;;;;;;;;;;6310831;28;20530;-64
2023/10/18 00:42:52;;;;;;;5.20;3.13;;;;;;;;;;6311100;28;20168;-65
2023/10/18 00:45:55;;;;;;;5.22;3.05;;;;;;;;;;6309011;28;20818;-65
2023/10/18 00:48:57;;;;;;;5.78;4.15;;;;;;;;;;6309350;28;20064;-65
2023/10/18 00:51:59;;;;;;;4.97;3.10;;;;;;;;;;6308965;28;20047;-65
2023/10/18 00:55:01;;;;;;;6.68;3.25;;;;;;;;;;6309298;28;20051;-64
2023/10/18 00:58:08;;;;;;;5.93;4.15;;;;;;;;;;6310015;28;20123;-64
2023/10/18 01:01:11;;;;;;;5.28;3.40;;;;;;;;;;6307575;28;20136;-64
2023/10/18 01:04:15;;;;;;;5.93;5.25;;;;;;;;;;6308842;28;20146;-64
2023/10/18 01:07:20;;;;;;;4.40;3.35;;;;;;;;;;6310542;28;20070;-64
2023/10/18 01:10:23;;;;;;;;;;;;;;;;;;6310639;28;20048;-64
2023/10/18 01:13:26;;;;;;;4.80;3.17;;;;;;;;;;6309049;28;19928;-65
2023/10/18 01:16:31;;;;;;;6.13;3.28;;;;;;;;;;6309226;28;20078;-64
2023/10/18 01:19:34;;;;;;;8.45;3.53;;;;;;;;;;6306629;28;20056;-64
2023/10/18 01:22:37;;;;;;;6.43;3.80;;;;;;;;;;6310389;28;20074;-64
2023/10/18 01:25:39;;;;;;;4.90;3.40;;;;;;;;;;6306060;28;20696;-65
2023/10/18 01:28:42;;;;;;;5.20;3.35;;;;;;;;;;6309051;28;20029;-64
2023/10/18 01:31:45;;;;;;;6.57;3.65;;;;;;;;;;6308825;28;20047;-65
2023/10/18 01:34:47;;;;;;;4.93;3.30;;;;;;;;;;6311115;28;20052;-65
2023/10/18 01:37:53;;;;;;;6.50;3.88;;;;;;;;;;6309087;28;20122;-64
2023/10/18 01:40:57;;;;;;;6.20;3.33;;;;;;;;;;6311437;28;20148;-64
2023/10/18 01:44:06;;;;;;;4.07;2.80;;;;;;;;;;6308868;28;20194;-65
2023/10/18 01:47:09;;;;;;;4.38;2.85;;;;;;;;;;6310560;28;20157;-64
2023/10/18 01:50:13;;;;;;;5.03;3.10;;;;;;;;;;6304843;28;20048;-65
2023/10/18 01:53:16;;;;;;;6.88;3.63;;;;;;;;;;6312305;28;20054;-64
2023/10/18 01:56:21;;;;;;;4.45;2.95;;;;;;;;;;6313469;28;20280;-65
2023/10/18 01:59:30;;;;;;;5.45;2.92;;;;;;;;;;6317371;28;20051;-64
2023/10/18 02:02:32;;;;;;;6.45;2.97;;;;;;;;;;6312267;28;20044;-64
2023/10/18 02:05:43;;;;;;;5.20;3.47;;;;;;;;;;6315259;28;20056;-64
2023/10/18 02:08:45;;;;;;;4.22;2.67;;;;;;;;;;6305832;28;20040;-64
2023/10/18 02:11:47;;;;;;;4.85;2.75;;;;;;;;;;6315115;28;20044;-64
2023/10/18 02:14:50;;;;;;;4.90;3.50;;;;;;;;;;6314842;28;20511;-65
2023/10/18 02:17:56;;;;;;;5.93;3.05;;;;;;;;;;6313634;28;20036;-65
2023/10/18 02:21:00;;;;;;;5.70;3.22;;;;;;;;;;6313365;28;20063;-65
2023/10/18 02:24:02;;;;;;;6.05;3.88;;;;;;;;;;6313826;28;20048;-65
2023/10/18 02:27:09;;;;;;;6.57;3.40;;;;;;;;;;6313468;28;20040;-65
2023/10/18 02:30:15;;;;;;;6.15;4.03;;;;;;;;;;6312210;28;20048;-65
2023/10/18 02:33:18;;;;;;;6.22;4.32;;;;;;;;;;6307176;28;20051;-65
2023/10/18 02:36:31;;;;;;;6.28;3.95;;;;;;;;;;6311509;28;20044;-65
2023/10/18 02:39:34;;;;;;;6.35;4.45;;;;;;;;;;6311925;28;20043;-66
2023/10/18 02:42:38;;;;;;;6.28;4.40;;;;;;;;;;6299799;28;20063;-66
2023/10/18 02:45:52;;;;;;;9.10;5.68;;;;;;;;;;6313515;28;20443;-65
2023/10/18 02:48:55;;;;;;;8.63;5.82;;;;;;;;;;6295081;28;20048;-65
2023/10/18 02:51:57;;;;;;;6.65;4.30;;;;;;;;;;6310375;28;20055;-66
2023/10/18 02:55:01;;;;;;;5.72;4.57;;;;;;;;;;6312944;28;20074;-65
2023/10/18 02:58:06;;;;;;;5.53;4.65;;;;;;;;;;6312953;28;20551;-65
2023/10/18 03:01:09;;;;;;;6.60;4.18;;;;;;;;;;6310265;28;20047;-66
2023/10/18 03:04:14;;;;;;;6.13;2.95;;;;;;;;;;6312359;28;20052;-65
2023/10/18 03:07:17;;;;;;;5.00;3.05;;;;;;;;;;6312732;28;20050;-65
2023/10/18 03:10:27;;;;;;;6.60;3.35;;;;;;;;;;6310843;28;20537;-65
2023/10/18 03:13:31;;;;;;;5.03;3.55;;;;;;;;;;6307877;28;20747;-65
2023/10/18 03:19:37;;;;;;;4.88;3.65;;;;;;;;;;6303434;28;20048;-64
2023/10/18 03:22:43;;;;;;;7.30;3.80;;;;;;;;;;6309669;28;20055;-65
2023/10/18 03:25:45;;;;;;;5.63;3.72;;;;;;;;;;6308534;28;20056;-64
2023/10/18 03:28:47;;;;;;;7.13;3.55;;;;;;;;;;6312269;28;20044;-64
2023/10/18 03:31:50;;;;;;;7.40;3.78;;;;;;;;;;6308908;28;20628;-64
2023/10/18 03:34:52;;;;;;;7.13;4.07;;;;;;;;;;6322937;28;20054;-64
2023/10/18 03:37:57;;;;;;;7.72;3.85;;;;;;;;;;6312570;28;20044;-64
2023/10/18 03:40:59;;;;;;;8.25;3.80;;;;;;;;;;6311554;28;20036;-64
2023/10/18 03:44:06;;;;;;;6.93;4.00;;;;;;;;;;6310903;28;20523;-64
2023/10/18 03:47:12;;;;;;;6.65;4.45;;;;;;;;;;6310955;28;20767;-64
2023/10/18 03:50:15;;;;;;;6.97;5.45;;;;;;;;;;6293740;28;20056;-64
2023/10/18 03:53:21;;;;;;;5.47;4.07;;;;;;;;;;6309095;28;20093;-64
2023/10/18 03:56:23;;;;;;;8.45;4.22;;;;;;;;;;6311434;28;20040;-65
2023/10/18 03:59:25;;;;;;;7.20;4.22;;;;;;;;;;6308577;28;20144;-64
2023/10/18 04:02:27;;;;;;;5.97;5.13;;;;;;;;;;6310092;28;20055;-64
2023/10/18 04:05:44;;;;;;;7.53;6.75;;;;;;;;;;6311175;28;20442;-64
2023/10/18 04:08:47;;;;;;;6.22;4.32;;;;;;;;;;6308350;28;20044;-64
2023/10/18 04:11:49;;;;;;;6.80;4.88;;;;;;;;;;6309621;28;20051;-64
2023/10/18 04:15:00;;;;;;;5.93;4.43;;;;;;;;;;6307305;28;20064;-65
2023/10/18 04:21:25;;;;;;;6.35;4.47;;;;;;;;;;6306718;28;20048;-65
2023/10/18 04:24:28;;;;;;;6.13;4.00;;;;;;;;;;6302087;28;20604;-66
2023/10/18 04:27:31;;;;;;;7.07;4.40;;;;;;;;;;6307909;28;20044;-72
2023/10/18 04:30:36;;;;;;;10.23;4.38;;;;;;;;;;6307057;28;20633;-63
2023/10/18 04:33:42;;;;;;;7.07;4.18;;;;;;;;;;6307640;28;20044;-63
2023/10/18 04:36:45;;;;;;;5.72;4.32;;;;;;;;;;6308660;28;20047;-63
2023/10/18 04:39:47;;;;;;;7.15;4.85;;;;;;;;;;6308101;28;20063;-68
2023/10/18 04:42:56;;;;;;;6.63;3.83;;;;;;;;;;6308608;28;20201;-62
2023/10/18 04:46:02;;;;;;;6.75;4.05;;;;;;;;;;6306058;28;20089;-62
2023/10/18 04:52:28;;;;;;;6.53;3.97;;;;;;;;;;6303553;28;19928;-65
2023/10/18 04:55:32;;;;;;;7.82;3.63;;;;;;;;;;6307084;28;20664;-64
2023/10/18 04:58:34;;;;;;;9.50;5.10;;;;;;;;;;6308710;28;20050;-65
2023/10/18 05:01:42;;;;;;;7.95;4.05;;;;;;;;;;6306366;28;20039;-66
2023/10/18 05:04:46;;;;;;;6.75;3.97;;;;;;;;;;6305697;28;20703;-66
2023/10/18 05:07:53;;;;;;;9.25;4.30;;;;;;;;;;6305230;28;20044;-65
2023/10/18 05:11:21;;;;;;;5.85;3.47;;;;;;;;;;6304721;28;20063;-66
2023/10/18 05:14:35;;;;;;;5.70;4.55;;;;;;;;;;6305992;28;20430;-71
2023/10/18 05:17:57;;;;;;;6.25;3.47;;;;;;;;;;6304864;28;20096;-71
2023/10/18 05:21:06;;;;;;;5.13;3.70;;;;;;;;;;6291686;28;20063;-72
2023/10/18 05:24:11;;;;;;;7.72;4.88;;;;;;;;;;6308361;28;20542;-72
2023/10/18 05:27:24;;;;;;;8.43;4.90;;;;;;;;;;6303979;28;20648;-72
2023/10/18 05:31:03;;;;;;;12.68;4.47;;;;;;;;;;6330157;28;20169;-72
2023/10/18 05:33:56;;;;;;;7.93;4.70;;;;;;;;;;6291123;28;20534;-72
2023/10/18 05:37:12;;;;;;;8.88;5.22;;;;;;;;;;6306022;28;20067;-69
2023/10/18 05:43:35;;;;;;;9.65;6.47;;;;;;;;;;6306545;28;20047;-63
2023/10/18 05:46:39;;;;;;;11.20;7.05;;;;;;;;;;6305324;28;20549;-65
2023/10/18 05:49:41;;;;;;;11.43;6.20;;;;;;;;;;6309394;28;20044;-65
2023/10/18 05:52:49;;;;;;;6.45;4.45;;;;;;;;;;6310255;28;20044;-65
2023/10/18 05:55:54;;;;;;;7.28;4.97;;;;;;;;;;6310255;28;20036;-65
2023/10/18 06:02:27;;;;;;;10.05;4.43;;;;;;;;;;6308250;28;20048;-65
2023/10/18 06:05:35;;;;;;;7.75;4.38;;;;;;;;;;6307279;28;20055;-65
2023/10/18 06:08:38;;;;;;;6.45;3.97;;;;;;;;;;6299388;28;20039;-65
2023/10/18 06:11:40;;;;;;;6.78;4.28;;;;;;;;;;6306887;28;20058;-65
2023/10/18 06:14:45;;;;;;;9.98;6.22;;;;;;;;;;6309658;28;20088;-64
2023/10/18 06:17:47;;;;;;;6.57;4.25;;;;;;;;;;6313544;28;20055;-65
2023/10/18 06:20:52;;;;;;;11.48;9.35;;;;;;;;;;6309565;28;20047;-65
2023/10/18 06:23:54;;;;;;;9.20;6.03;;;;;;;;;;6309772;28;20063;-65
2023/10/18 06:26:56;;;;;;;10.63;8.52;;;;;;;;;;6306379;28;20044;-64
2023/10/18 06:29:59;;;;;;;7.82;4.85;;;;;;;;;;6308026;28;20051;-65
2023/10/18 06:33:06;;;;;;;7.20;4.97;;;;;;;;;;6306728;28;20044;-65
2023/10/18 06:36:14;;;;;;;7.05;4.72;;;;;;;;;;6311267;28;20069;-65
2023/10/18 06:39:25;;;;;;;9.68;6.07;;;;;;;;;;6313926;28;20044;-65
2023/10/18 06:42:27;;;;;;;6.75;5.07;;;;;;;;;;6313773;28;20090;-65
2023/10/18 06:45:33;;;;;;;7.65;5.10;;;;;;;;;;6312881;28;20056;-63
2023/10/18 06:48:38;;;;;;;8.00;4.78;;;;;;;;;;6311782;28;20059;-72
2023/10/18 06:51:40;;;;;;;9.38;6.45;;;;;;;;;;6304663;28;20052;-63
2023/10/18 06:54:45;;;;;;;6.45;4.57;;;;;;;;;;6317452;28;20040;-62
2023/10/18 06:57:49;;;;;;;5.15;3.85;;;;;;;;;;6315123;28;20051;-63
2023/10/18 07:00:53;;;;;;;5.32;3.53;;;;;;;;;;6314060;28;20056;-63
2023/10/18 07:03:56;;;;;;;6.55;4.68;;;;;;;;;;6312501;28;20060;-63
2023/10/18 07:06:59;;;;;;;6.32;3.50;;;;;;;;;;6313134;28;20047;-63
2023/10/18 07:10:04;;;;;;;6.57;4.15;;;;;;;;;;6313231;28;20032;-63
2023/10/18 07:13:07;;;;;;;7.15;4.35;;;;;;;;;;6308174;28;20052;-64
2023/10/18 07:16:12;;;;;;;6.78;3.55;;;;;;;;;;6315155;28;20048;-63
2023/10/18 07:19:27;;;;;;;5.93;4.15;;;;;;;;;;6309546;28;20123;-63
2023/10/18 07:22:44;;;;;;;5.97;3.88;;;;;;;;;;6311404;28;20549;-63
2023/10/18 07:25:48;;;;;;;6.18;3.97;;;;;;;;;;6305742;28;20072;-64
2023/10/18 07:29:08;;;;;;;9.23;4.93;;;;;;;;;;6311301;28;20032;-62
2023/10/18 07:32:12;;;;;;;8.13;4.32;;;;;;;;;;6310405;28;20055;-62
2023/10/18 07:35:30;;;;;;;7.85;4.97;;;;;;;;;;6311201;28;20671;-61
2023/10/18 07:38:33;;;;;;;9.93;5.35;;;;;;;;;;6310042;28;20044;-62
2023/10/18 07:41:34;;;;;;;5.57;4.50;;;;;;;;;;6310999;28;20050;-62
2023/10/18 07:44:41;;;;;;;6.00;4.07;;;;;;;;;;6310147;28;20059;-62
2023/10/18 07:47:43;;;;;;;6.50;5.18;;;;;;;;;;6309745;28;20126;-64
2023/10/18 07:50:50;;;;;;;6.10;4.22;;;;;;;;;;6310851;28;20036;-64
2023/10/18 07:53:53;;;;;;;6.40;4.43;;;;;;;;;;6312110;28;20079;-65
2023/10/18 07:56:55;;;;;;;6.32;4.32;;;;;;;;;;6311261;28;20040;-64
2023/10/18 08:00:21;;;;;;;9.35;4.63;;;;;;;;;;6309007;28;20055;-64
2023/10/18 08:03:19;;;;;;;5.00;4.00;;;;;;;;;;6309428;28;20368;-64
2023/10/18 08:06:33;;;;;;;6.47;3.97;;;;;;;;;;6307922;28;20575;-67
2023/10/18 08:09:39;;;;;;;6.88;4.57;;;;;;;;;;6310763;28;20035;-66
2023/10/18 08:12:41;;;;;;;6.35;4.40;;;;;;;;;;6311219;28;20098;-63
2023/10/18 08:15:50;;;;;;;6.25;4.55;;;;;;;;;;6311739;28;20047;-65
2023/10/18 08:18:53;;;;;;;6.90;4.28;;;;;;;;;;6306132;28;20083;-64
2023/10/18 08:25:21;;;;;;;5.95;3.70;;;;;;;;;;6307726;28;20051;-64
2023/10/18 08:28:23;;;;;;;8.38;4.38;;;;;;;;;;6308827;28;20048;-64
2023/10/18 08:31:35;;;;;;;5.53;3.63;;;;;;;;;;6303793;28;20059;-64
2023/10/18 08:34:37;;;;;;;5.70;3.60;;;;;;;;;;6310831;28;20044;-64
2023/10/18 08:37:39;;;;;;;8.20;4.43;;;;;;;;;;6310353;28;20239;-65
2023/10/18 08:40:42;;;;;;;5.45;4.30;;;;;;;;;;6301198;28;20040;-64
2023/10/18 08:43:57;;;;;;;5.28;3.13;;;;;;;;;;6308775;28;20066;-64
2023/10/18 08:50:12;;;;;;;4.93;3.53;;;;;;;;;;6309066;28;20059;-66
2023/10/18 08:53:15;;;;;;;4.53;3.17;;;;;;;;;;6307363;28;20052;-64
2023/10/18 08:56:25;;;;;;;8.52;2.97;;;;;;;;;;6332910;27;20044;-65
2023/10/18 08:59:27;;;;;;;4.68;3.30;;;;;;;;;;6309035;28;20439;-64
2023/10/18 09:02:39;;;;;;;7.20;3.83;;;;;;;;;;6308424;28;20101;-64
2023/10/18 09:05:41;;;;;;;5.50;3.42;;;;;;;;;;6308535;28;20051;-64
2023/10/18 09:09:00;;;;;;;9.25;4.45;;;;;;;;;;6310956;28;20044;-64
2023/10/18 09:12:15;;;;;;;6.30;2.72;;;;;;;;;;6311267;28;20083;-64
2023/10/18 09:15:35;;;;;;;6.07;4.57;;;;;;;;;;6311911;28;20044;-62
2023/10/18 09:18:58;;;;;;;5.10;3.83;;;;;;;;;;6311362;28;20036;-64
2023/10/18 09:22:02;;;;;;;5.32;3.42;;;;;;;;;;6310175;28;20056;-63
2023/10/18 09:25:04;;;;;;;4.47;2.58;;;;;;;;;;6310842;28;20048;-64
2023/10/18 09:28:10;;;;;;;6.32;3.45;;;;;;;;;;6305777;28;20059;-63
2023/10/18 09:31:18;;;;;;;7.15;3.17;;;;;;;;;;6309689;28;20064;-63
2023/10/18 09:34:33;;;;;;;5.43;2.70;;;;;;;;;;6309930;28;20517;-63
2023/10/18 09:37:36;;;;;;;4.13;2.63;;;;;;;;;;6309265;28;20653;-63
2023/10/18 09:40:40;;;;;;;7.68;3.72;;;;;;;;;;6309938;28;20524;-63
2023/10/18 09:43:44;;;;;;;16.27;7.68;;;;;;;;;;6307023;28;20055;-63
2023/10/18 09:46:49;;;;;;;46.63;20.38;;;;;;;;;;6309824;28;20063;-63
2023/10/18 09:49:54;;;;;;;9.20;5.22;;;;;;;;;;6309390;28;20044;-63
2023/10/18 09:52:57;;;;;;;7.72;4.35;;;;;;;;;;6308905;28;20538;-63
2023/10/18 09:55:59;;;;;;;6.28;3.92;;;;;;;;;;6308635;28;20108;-63
2023/10/18 09:59:06;;;;;;;16.10;8.82;;;;;;;;;;6307651;28;20151;-63
2023/10/18 10:02:15;;;;;;;30.15;15.90;;;;;;;;;;6307796;28;20043;-63
2023/10/18 10:05:26;;;;;;;8.02;4.20;;;;;;;;;;6305633;28;20101;-64
2023/10/18 10:08:31;;;;;;;5.95;3.72;;;;;;;;;;6306202;28;20040;-63
2023/10/18 10:11:36;;;;;;;;;;;;;;;;;;6311733;28;20190;-64
2023/10/18 10:14:38;;;;;;;8.77;5.40;;;;;;;;;;6311896;28;20362;-63
2023/10/18 10:17:42;;;;;;;5.85;3.78;;;;;;;;;;6313824;28;20052;-63
2023/10/18 10:20:46;;;;;;;4.80;3.45;;;;;;;;;;6312227;28;20124;-64
2023/10/18 10:23:55;;;;;;;3.92;2.22;;;;;;;;;;6311849;28;20044;-63
2023/10/18 10:27:27;;;;;;;5.47;2.63;;;;;;;;;;6311842;28;20063;-63
2023/10/18 10:30:34;;;;;;;5.50;3.08;;;;;;;;;;6313606;28;20457;-63
2023/10/18 10:34:06;;;;;;;4.15;2.40;;;;;;;;;;6311352;28;20048;-64
2023/10/18 10:37:18;;;;;;;6.05;2.25;;;;;;;;;;6305106;28;21089;-64
2023/10/18 10:44:06;;;;;;;5.97;2.92;;;;;;;;;;6307850;28;20055;-64
2023/10/18 10:47:30;;;;;;;6.80;3.08;;;;;;;;;;6313228;28;20486;-64
2023/10/18 10:50:43;;;;;;;3.67;3.25;;;;;;;;;;6310962;28;20044;-63
2023/10/18 10:53:59;;;;;;;5.93;3.67;;;;;;;;;;6311189;28;20101;-64
2023/10/18 10:57:01;;;;;;;4.72;2.78;;;;;;;;;;6310416;28;20127;-65
2023/10/18 11:03:54;;;;;;;6.03;4.80;;;;;;;;;;6277574;28;20408;-63
2023/10/18 11:07:01;;;;;;;4.30;2.38;;;;;;;;;;6266132;28;20144;-63
2023/10/18 11:10:14;;;;;;;3.95;2.55;;;;;;;;;;6312234;28;20515;-63
2023/10/18 11:13:22;;;;;;;4.03;2.63;;;;;;;;;;6306889;28;20109;-64
2023/10/18 11:16:24;;;;;;;4.32;2.47;;;;;;;;;;6312050;28;20040;-63
2023/10/18 11:19:29;;;;;;;4.38;2.45;;;;;;;;;;6310885;28;20116;-63
2023/10/18 11:22:35;;;;;;;5.68;2.97;;;;;;;;;;6308932;28;20664;-63
2023/10/18 11:25:41;;;;;;;4.72;2.95;;;;;;;;;;6308411;28;20051;-64
2023/10/18 11:28:43;;;;;;;3.83;2.13;;;;;;;;;;6307465;28;20057;-62
2023/10/18 11:31:46;;;;;;;4.22;3.05;;;;;;;;;;6308785;28;20522;-63
2023/10/18 11:34:51;;;;;;;4.03;2.67;;;;;;;;;;6307323;28;20048;-63
2023/10/18 11:37:54;;;;;;;;;;;;;;;;;;6308684;28;20048;-63
2023/10/18 11:40:56;;;;;;;5.97;3.58;;;;;;;;;;6305657;28;19969;-63
2023/10/18 11:43:58;;;;;;;4.45;2.53;;;;;;;;;;6305697;28;20082;-63
2023/10/18 11:47:19;;;;;;;5.03;3.20;;;;;;;;;;6305619;28;20495;-63
2023/10/18 11:50:23;;;;;;;5.57;3.25;;;;;;;;;;6307813;28;20051;-63
2023/10/18 11:53:26;;;;;;;9.27;4.13;;;;;;;;;;6311261;28;20438;-62
2023/10/18 11:56:35;;;;;;;4.90;3.15;;;;;;;;;;6309648;28;20732;-63
2023/10/18 11:59:51;;;;;;;6.30;3.35;;;;;;;;;;6303792;28;20582;-63
2023/10/18 12:02:55;;;;;;;5.63;3.95;;;;;;;;;;6310418;28;20589;-64
2023/10/18 12:05:57;;;;;;;5.25;2.50;;;;;;;;;;6307980;28;20181;-64
2023/10/18 12:09:46;;;;;;;4.70;2.72;;;;;;;;;;6309358;28;20073;-64
2023/10/18 12:12:24;;;;;;;8.18;4.63;;;;;;;;;;6298063;28;20498;-64
2023/10/18 12:15:30;;;;;;;17.33;11.40;;;;;;;;;;6309440;28;20514;-63
2023/10/18 12:18:32;;;;;;;11.90;8.07;;;;;;;;;;6308538;28;20075;-63
2023/10/18 12:21:34;;;;;;;41.88;25.60;;;;;;;;;;6308422;28;20040;-64
2023/10/18 12:24:38;;;;;;;5.70;3.47;;;;;;;;;;6309774;28;20080;-64
2023/10/18 12:27:50;;;;;;;12.90;8.68;;;;;;;;;;6309297;28;20048;-63
2023/10/18 12:30:52;;;;;;;10.70;8.45;;;;;;;;;;6310485;28;20044;-63
2023/10/18 12:33:58;;;;;;;7.35;6.28;;;;;;;;;;6309198;28;20599;-63
2023/10/18 12:37:01;;;;;;;5.47;4.43;;;;;;;;;;6309767;28;20788;-63
2023/10/18 12:40:14;;;;;;;7.95;5.75;;;;;;;;;;6310067;28;20435;-63
2023/10/18 12:43:20;;;;;;;6.13;4.40;;;;;;;;;;6305515;28;20055;-63
2023/10/18 12:46:22;;;;;;;6.25;5.10;;;;;;;;;;6309282;28;20048;-63
2023/10/18 12:49:31;;;;;;;6.55;4.20;;;;;;;;;;6309928;28;20044;-61
2023/10/18 12:55:43;;;;;;;4.68;3.22;;;;;;;;;;6310761;28;20052;-63
2023/10/18 12:58:54;;;;;;;5.20;4.05;;;;;;;;;;6311530;28;20052;-63
2023/10/18 13:01:58;;;;;;;7.93;6.88;;;;;;;;;;6310801;28;20542;-63
2023/10/18 13:05:01;;;;;;;9.82;8.00;;;;;;;;;;6310940;28;20055;-63
2023/10/18 13:08:15;;;;;;;10.68;8.38;;;;;;;;;;6310907;28;20055;-63
2023/10/18 13:14:24;;;;;;;15.30;11.13;;;;;;;;;;6311037;28;20046;-64
2023/10/18 13:17:26;;;;;;;11.85;8.32;;;;;;;;;;6305742;28;20052;-63
2023/10/18 13:20:34;;;;;;;14.82;10.13;;;;;;;;;;6310639;28;20047;-63
2023/10/18 13:23:39;;;;;;;13.73;10.20;;;;;;;;;;6309817;28;20051;-63
2023/10/18 13:26:53;;;;;;;16.83;9.15;;;;;;;;;;6307553;28;20245;-63
2023/10/18 13:30:09;;;;;;;13.43;10.25;;;;;;;;;;6310667;28;20128;-63
2023/10/18 13:33:11;;;;;;;6.07;5.40;;;;;;;;;;6309069;28;20063;-63
2023/10/18 13:36:13;;;;;;;7.78;5.95;;;;;;;;;;6310220;28;20044;-63
2023/10/18 13:39:16;;;;;;;8.23;6.07;;;;;;;;;;6308973;28;20044;-63
2023/10/18 13:42:18;;;;;;;7.90;6.05;;;;;;;;;;6307954;28;20130;-63
2023/10/18 13:45:27;;;;;;;5.65;4.57;;;;;;;;;;6308521;28;20044;-63
2023/10/18 13:48:30;;;;;;;6.63;4.97;;;;;;;;;;6313922;28;20051;-63
2023/10/18 13:51:37;;;;;;;12.75;5.50;;;;;;;;;;6313445;28;20051;-63
2023/10/18 13:54:40;;;;;;;6.55;5.03;;;;;;;;;;6314385;28;20213;-63
2023/10/18 13:57:47;;;;;;;6.20;5.15;;;;;;;;;;6313576;28;20626;-63
2023/10/18 14:00:50;;;;;;;11.27;8.30;;;;;;;;;;6314322;28;20044;-63
2023/10/18 14:03:54;;;;;;;10.00;9.00;;;;;;;;;;6312221;28;20617;-63
2023/10/18 14:06:59;;;;;;;9.73;7.32;;;;;;;;;;6312849;28;20052;-63
2023/10/18 14:10:19;;;;;;;9.35;6.15;;;;;;;;;;6313181;28;20519;-62
2023/10/18 14:13:24;;;;;;;10.63;7.57;;;;;;;;;;6309303;28;20043;-62
2023/10/18 14:16:26;;;;;;;9.50;6.40;;;;;;;;;;6309986;28;20044;-62
2023/10/18 14:19:32;;;;;;;8.40;5.80;;;;;;;;;;6302012;28;20053;-64
2023/10/18 14:22:35;;;;;;;8.68;5.75;;;;;;;;;;6311849;28;20097;-64
2023/10/18 14:25:38;;;;;;;10.25;8.68;;;;;;;;;;6313249;28;20046;-64
2023/10/18 14:28:42;;;;;;;11.90;7.95;;;;;;;;;;6312255;28;20041;-64
2023/10/18 14:31:44;;;;;;;10.98;7.50;;;;;;;;;;6312464;28;20040;-63
2023/10/18 14:34:49;;;;;;;15.93;6.88;;;;;;;;;;6311355;28;20048;-63
2023/10/18 14:37:51;;;;;;;11.80;6.57;;;;;;;;;;6313038;28;20059;-62
2023/10/18 14:40:53;;;;;;;20.77;10.52;;;;;;;;;;6313247;28;20566;-62
2023/10/18 14:44:07;;;;;;;19.45;12.05;;;;;;;;;;6312516;28;20052;-62
2023/10/18 14:47:11;;;;;;;13.35;8.65;;;;;;;;;;6309895;28;20563;-62
2023/10/18 14:50:14;;;;;;;16.10;7.85;;;;;;;;;;6312511;28;20748;-63
2023/10/18 14:53:17;;;;;;;16.30;7.93;;;;;;;;;;6312498;28;21343;-63
2023/10/18 14:56:19;;;;;;;17.05;12.57;;;;;;;;;;6308334;28;20051;-66
2023/10/18 14:59:21;;;;;;;9.27;6.95;;;;;;;;;;6307090;28;20062;-66
2023/10/18 15:02:23;;;;;;;9.50;7.75;;;;;;;;;;6311611;28;20040;-66
2023/10/18 15:05:25;;;;;;;14.00;6.30;;;;;;;;;;6313230;28;20526;-64
2023/10/18 15:08:28;;;;;;;11.25;6.72;;;;;;;;;;6310056;28;20040;-64
2023/10/18 15:11:30;;;;;;;9.88;7.20;;;;;;;;;;6311458;28;20416;-64
2023/10/18 15:14:32;;;;;;;8.23;6.45;;;;;;;;;;6311286;28;20055;-63
2023/10/18 15:17:37;;;;;;;9.90;7.03;;;;;;;;;;6311179;28;20446;-64
2023/10/18 15:20:41;;;;;;;10.68;7.63;;;;;;;;;;6312189;28;20141;-63
2023/10/18 15:23:44;;;;;;;13.30;7.00;;;;;;;;;;6311307;28;20134;-65
2023/10/18 15:26:49;;;;;;;11.07;7.05;;;;;;;;;;6306531;28;20522;-64
2023/10/18 15:29:52;;;;;;;8.05;6.30;;;;;;;;;;6310134;28;20140;-65
2023/10/18 15:32:54;;;;;;;10.05;6.75;;;;;;;;;;6312541;28;20180;-64
2023/10/18 15:35:56;;;;;;;9.35;7.13;;;;;;;;;;6312721;28;20066;-65
2023/10/18 15:39:00;;;;;;;10.35;7.20;;;;;;;;;;6309745;28;20439;-64
2023/10/18 15:42:03;;;;;;;8.73;6.63;;;;;;;;;;6309471;28;20040;-65
2023/10/18 15:45:05;;;;;;;12.88;7.63;;;;;;;;;;6310920;28;20554;-64
2023/10/18 15:48:11;;;;;;;8.57;6.57;;;;;;;;;;6311683;28;20054;-64
2023/10/18 15:51:14;;;;;;;9.57;6.85;;;;;;;;;;6309642;28;20043;-64
2023/10/18 15:54:17;;;;;;;10.25;7.05;;;;;;;;;;6308987;28;20561;-64
2023/10/18 15:57:19;;;;;;;9.35;6.72;;;;;;;;;;6303078;28;20785;-64
2023/10/18 16:00:24;;;;;;;11.30;6.88;;;;;;;;;;6309760;28;20613;-63
2023/10/18 16:03:29;;;;;;;9.05;6.53;;;;;;;;;;6305516;28;20123;-63
2023/10/18 16:06:32;;;;;;;11.32;7.10;;;;;;;;;;6309133;28;20834;-63
2023/10/18 16:09:34;;;;;;;11.45;8.63;;;;;;;;;;6309484;28;20059;-64
2023/10/18 16:12:36;;;;;;;10.75;7.50;;;;;;;;;;6310008;28;20036;-64
2023/10/18 16:15:39;;;;;;;12.50;8.50;;;;;;;;;;6309778;28;20044;-63
2023/10/18 16:18:41;;;;;;;9.60;7.75;;;;;;;;;;6310320;28;20039;-63
2023/10/18 16:21:43;;;;;;;10.90;6.70;;;;;;;;;;6310752;28;20108;-64
2023/10/18 16:24:47;;;;;;;10.02;6.75;;;;;;;;;;6312265;28;20530;-64
2023/10/18 16:27:49;;;;;;;9.32;7.03;;;;;;;;;;6304439;28;20044;-63
2023/10/18 16:30:51;;;;;;;9.35;6.25;;;;;;;;;;6311486;28;20522;-63
2023/10/18 16:33:56;;;;;;;8.73;6.57;;;;;;;;;;6311728;28;20147;-63
2023/10/18 16:36:59;;;;;;;10.00;7.40;;;;;;;;;;6311841;28;20055;-64
2023/10/18 16:40:03;;;;;;;9.88;7.65;;;;;;;;;;6310990;28;20233;-63
2023/10/18 16:43:05;;;;;;;11.57;7.75;;;;;;;;;;6310189;28;20044;-65
2023/10/18 16:46:09;;;;;;;10.68;8.10;;;;;;;;;;6306246;28;20044;-64
2023/10/18 16:49:15;;;;;;;11.27;8.57;;;;;;;;;;6299757;28;20040;-71
2023/10/18 16:52:17;;;;;;;11.82;8.50;;;;;;;;;;6306007;28;20036;-67
2023/10/18 16:55:20;;;;;;;12.02;8.40;;;;;;;;;;6308563;28;20044;-73
2023/10/18 16:58:25;;;;;;;12.80;8.95;;;;;;;;;;6307363;28;20071;-72
2023/10/18 17:01:29;;;;;;;12.10;7.90;;;;;;;;;;6281981;28;20068;-72
2023/10/18 17:04:31;;;;;;;11.90;8.93;;;;;;;;;;6309232;28;20048;-72
2023/10/18 17:07:33;;;;;;;12.10;8.60;;;;;;;;;;6308193;28;20048;-68
2023/10/18 17:10:37;;;;;;;11.82;8.82;;;;;;;;;;6307401;28;20535;-66
2023/10/18 17:13:42;;;;;;;10.68;7.70;;;;;;;;;;6304599;28;20048;-67
2023/10/18 17:16:47;;;;;;;11.45;8.25;;;;;;;;;;6306650;28;20522;-67
2023/10/18 17:19:49;;;;;;;10.93;8.20;;;;;;;;;;6307353;28;20090;-67
2023/10/18 17:22:51;;;;;;;13.65;8.60;;;;;;;;;;6304448;28;20055;-67
2023/10/18 17:25:53;;;;;;;12.30;9.00;;;;;;;;;;6304695;28;20043;-67
2023/10/18 17:28:55;;;;;;;13.93;8.55;;;;;;;;;;6307617;28;20096;-69
2023/10/18 17:31:57;;;;;;;11.63;8.82;;;;;;;;;;6306530;28;20717;-72
2023/10/18 17:34:59;;;;;;;12.82;9.05;;;;;;;;;;6291827;28;20083;-72
2023/10/18 17:38:03;;;;;;;12.65;8.88;;;;;;;;;;6309780;28;20039;-70
2023/10/18 17:41:05;;;;;;;13.20;9.68;;;;;;;;;;6308600;28;20419;-70
2023/10/18 17:44:08;;;;;;;15.60;8.25;;;;;;;;;;6304841;28;20063;-67
2023/10/18 17:47:10;;;;;;;11.88;9.18;;;;;;;;;;6304652;28;20044;-67
2023/10/18 17:50:13;;;;;;;12.60;9.20;;;;;;;;;;6299936;28;20051;-68
2023/10/18 17:53:15;;;;;;;13.70;9.10;;;;;;;;;;6304865;28;20044;-66
2023/10/18 17:56:17;;;;;;;12.32;8.77;;;;;;;;;;6308528;28;20184;-67
2023/10/18 17:59:21;;;;;;;12.18;10.57;;;;;;;;;;6309081;28;20102;-67
2023/10/18 18:02:23;;;;;;;12.27;8.73;;;;;;;;;;6307937;28;20439;-68
2023/10/18 18:05:31;;;;;;;13.38;9.25;;;;;;;;;;6301903;28;20048;-64
2023/10/18 18:08:35;;;;;;;13.55;9.43;;;;;;;;;;6298246;28;20134;-69
2023/10/18 18:11:38;;;;;;;12.75;9.25;;;;;;;;;;6303539;28;20127;-69
2023/10/18 18:14:41;;;;;;;9.93;8.77;;;;;;;;;;6302602;28;20119;-64
2023/10/18 18:17:44;;;;;;;11.15;7.88;;;;;;;;;;6303415;28;20040;-63
2023/10/18 18:20:50;;;;;;;11.20;8.93;;;;;;;;;;6301274;28;20136;-64
2023/10/18 18:23:54;;;;;;;10.93;8.70;;;;;;;;;;6309491;28;20542;-64
2023/10/18 18:26:56;;;;;;;9.85;8.02;;;;;;;;;;6308498;28;20055;-64
2023/10/18 18:29:58;;;;;;;15.07;10.20;;;;;;;;;;6305888;28;20764;-63
2023/10/18 18:33:00;;;;;;;12.57;8.25;;;;;;;;;;6305984;28;20052;-65
2023/10/18 18:36:03;;;;;;;10.32;8.18;;;;;;;;;;6311307;28;20116;-71
2023/10/18 18:39:05;;;;;;;10.48;7.95;;;;;;;;;;6305202;28;21330;-69
2023/10/18 18:42:08;;;;;;;10.82;7.88;;;;;;;;;;6309663;28;20112;-68
2023/10/18 18:45:12;;;;;;;9.10;6.60;;;;;;;;;;6309859;28;20055;-69
2023/10/18 18:48:14;;;;;;;10.50;7.15;;;;;;;;;;6312163;28;20039;-70
2023/10/18 18:51:16;;;;;;;10.35;5.93;;;;;;;;;;6308928;28;20032;-70
2023/10/18 18:54:18;;;;;;;8.85;6.40;;;;;;;;;;6304453;28;20116;-64
2023/10/18 18:57:20;;;;;;;10.30;6.00;;;;;;;;;;6308101;28;20041;-64
2023/10/18 19:00:22;;;;;;;7.78;6.07;;;;;;;;;;6305390;28;20156;-65
2023/10/18 19:03:25;;;;;;;8.73;6.03;;;;;;;;;;6312161;28;20690;-65
2023/10/18 19:06:27;;;;;;;7.90;6.50;;;;;;;;;;6307516;28;20134;-64